sensor_id;sensor_type;location;lat;lon;timestamp;temperature;humidity
14924;DHT22;7554;43.600;1.480;2022-12-07T00:02:16;9.20;1.00
14924;DHT22;7554;43.600;1.480;2022-12-07T00:04:45;9.30;1.00
14924;DHT22;7554;43.600;1.480;2022-12-07T00:07:12;9.20;1.00
14924;DHT22;7554;43.600;1.480;2022-12-07T00:09:40;9.10;1.00
14924;DHT22;7554;43.600;1.480;2022-12-07T00:12:08;9.00;1.00
14924;DHT22;7554;43.600;1.480;2022-12-07T00:14:35;8.90;1.00
14924;DHT22;7554;43.600;1.480;2022-12-07T00:17:03;9.00;1.00
14924;DHT22;7554;43.600;1.480;2022-12-07T00:19:30;9.00;1.00
14924;DHT22;7554;43.600;1.480;2022-12-07T00:21:59;9.00;1.00
14924;DHT22;7554;43.600;1.480;2022-12-07T00:24:27;8.90;1.00
14924;DHT22;7554;43.600;1.480;2022-12-07T00:26:54;9.00;1.00
14924;DHT22;7554;43.600;1.480;2022-12-07T00:29:21;9.10;1.00
14924;DHT22;7554;43.600;1.480;2022-12-07T00:31:49;9.10;1.00
14924;DHT22;7554;43.600;1.480;2022-12-07T00:34:18;9.00;1.00
14924;DHT22;7554;43.600;1.480;2022-12-07T00:36:46;9.10;1.00
14924;DHT22;7554;43.600;1.480;2022-12-07T00:39:15;9.00;1.00
14924;DHT22;7554;43.600;1.480;2022-12-07T00:41:43;9.00;1.00
14924;DHT22;7554;43.600;1.480;2022-12-07T00:44:10;9.10;1.00
14924;DHT22;7554;43.600;1.480;2022-12-07T00:46:38;9.00;1.00
14924;DHT22;7554;43.600;1.480;2022-12-07T00:49:05;9.00;1.00
14924;DHT22;7554;43.600;1.480;2022-12-07T00:51:33;9.00;1.00
14924;DHT22;7554;43.600;1.480;2022-12-07T00:54:00;9.10;1.00
14924;DHT22;7554;43.600;1.480;2022-12-07T00:56:29;9.10;1.00
14924;DHT22;7554;43.600;1.480;2022-12-07T00:58:57;9.10;1.00
14924;DHT22;7554;43.600;1.480;2022-12-07T01:01:27;9.10;1.00
14924;DHT22;7554;43.600;1.480;2022-12-07T01:03:54;9.00;1.00
14924;DHT22;7554;43.600;1.480;2022-12-07T01:06:23;9.00;1.00
14924;DHT22;7554;43.600;1.480;2022-12-07T01:08:50;9.00;1.00
14924;DHT22;7554;43.600;1.480;2022-12-07T01:11:20;9.00;1.00
14924;DHT22;7554;43.600;1.480;2022-12-07T01:13:50;9.00;1.00
14924;DHT22;7554;43.600;1.480;2022-12-07T01:16:18;9.00;1.00
14924;DHT22;7554;43.600;1.480;2022-12-07T01:18:48;9.00;1.00
14924;DHT22;7554;43.600;1.480;2022-12-07T01:21:17;9.00;1.00
14924;DHT22;7554;43.600;1.480;2022-12-07T01:23:47;9.00;1.00
14924;DHT22;7554;43.600;1.480;2022-12-07T01:26:16;9.00;1.00
14924;DHT22;7554;43.600;1.480;2022-12-07T01:28:44;9.00;1.00
14924;DHT22;7554;43.600;1.480;2022-12-07T01:31:15;9.00;1.00
14924;DHT22;7554;43.600;1.480;2022-12-07T01:33:44;9.00;1.00
14924;DHT22;7554;43.600;1.480;2022-12-07T01:36:15;9.00;1.00
14924;DHT22;7554;43.600;1.480;2022-12-07T01:38:45;9.00;1.00
14924;DHT22;7554;43.600;1.480;2022-12-07T01:41:13;9.00;1.00
14924;DHT22;7554;43.600;1.480;2022-12-07T01:44:13;8.90;1.00
14924;DHT22;7554;43.600;1.480;2022-12-07T01:46:43;8.90;1.00
14924;DHT22;7554;43.600;1.480;2022-12-07T01:49:14;9.00;1.00
14924;DHT22;7554;43.600;1.480;2022-12-07T01:51:43;9.00;1.00
14924;DHT22;7554;43.600;1.480;2022-12-07T01:54:13;9.00;1.00
14924;DHT22;7554;43.600;1.480;2022-12-07T01:56:44;8.90;1.00
14924;DHT22;7554;43.600;1.480;2022-12-07T01:59:13;8.90;1.00
14924;DHT22;7554;43.600;1.480;2022-12-07T02:01:43;8.90;1.00
14924;DHT22;7554;43.600;1.480;2022-12-07T02:04:11;8.80;1.00
14924;DHT22;7554;43.600;1.480;2022-12-07T02:06:39;8.90;1.00
14924;DHT22;7554;43.600;1.480;2022-12-07T02:09:08;8.80;1.00
14924;DHT22;7554;43.600;1.480;2022-12-07T02:11:36;8.80;1.00
14924;DHT22;7554;43.600;1.480;2022-12-07T02:14:03;8.80;1.00
14924;DHT22;7554;43.600;1.480;2022-12-07T02:16:38;8.80;1.00
14924;DHT22;7554;43.600;1.480;2022-12-07T02:22:24;8.80;1.00
14924;DHT22;7554;43.600;1.480;2022-12-07T02:25:01;8.70;1.00
14924;DHT22;7554;43.600;1.480;2022-12-07T02:27:42;8.70;1.00
14924;DHT22;7554;43.600;1.480;2022-12-07T02:30:15;8.80;1.00
14924;DHT22;7554;43.600;1.480;2022-12-07T02:32:51;8.80;1.00
14924;DHT22;7554;43.600;1.480;2022-12-07T02:35:25;8.80;1.00
14924;DHT22;7554;43.600;1.480;2022-12-07T02:38:01;8.70;1.00
14924;DHT22;7554;43.600;1.480;2022-12-07T02:40:33;8.70;1.00
14924;DHT22;7554;43.600;1.480;2022-12-07T02:43:06;8.80;1.00
14924;DHT22;7554;43.600;1.480;2022-12-07T02:45:39;8.80;1.00
14924;DHT22;7554;43.600;1.480;2022-12-07T02:48:08;8.80;1.00
14924;DHT22;7554;43.600;1.480;2022-12-07T02:50:37;8.80;1.00
14924;DHT22;7554;43.600;1.480;2022-12-07T02:53:04;8.80;1.00
14924;DHT22;7554;43.600;1.480;2022-12-07T02:55:38;8.80;1.00
14924;DHT22;7554;43.600;1.480;2022-12-07T02:58:22;8.80;1.00
14924;DHT22;7554;43.600;1.480;2022-12-07T03:01:02;8.80;1.00
14924;DHT22;7554;43.600;1.480;2022-12-07T03:03:33;8.80;1.00
14924;DHT22;7554;43.600;1.480;2022-12-07T03:06:09;8.80;1.00
14924;DHT22;7554;43.600;1.480;2022-12-07T03:08:49;8.80;1.00
14924;DHT22;7554;43.600;1.480;2022-12-07T03:11:23;8.80;1.00
14924;DHT22;7554;43.600;1.480;2022-12-07T03:13:58;8.90;1.00
14924;DHT22;7554;43.600;1.480;2022-12-07T03:16:33;8.90;1.00
14924;DHT22;7554;43.600;1.480;2022-12-07T03:19:03;8.90;1.00
14924;DHT22;7554;43.600;1.480;2022-12-07T03:21:32;8.90;1.00
14924;DHT22;7554;43.600;1.480;2022-12-07T03:24:05;8.90;1.00
14924;DHT22;7554;43.600;1.480;2022-12-07T03:26:36;8.80;1.00
14924;DHT22;7554;43.600;1.480;2022-12-07T03:29:08;8.80;1.00
14924;DHT22;7554;43.600;1.480;2022-12-07T03:31:41;8.80;1.00
14924;DHT22;7554;43.600;1.480;2022-12-07T03:34:13;8.80;1.00
14924;DHT22;7554;43.600;1.480;2022-12-07T03:36:46;8.90;1.00
14924;DHT22;7554;43.600;1.480;2022-12-07T03:39:20;8.90;1.00
14924;DHT22;7554;43.600;1.480;2022-12-07T03:41:50;8.80;1.00
14924;DHT22;7554;43.600;1.480;2022-12-07T03:44:20;8.80;1.00
14924;DHT22;7554;43.600;1.480;2022-12-07T03:46:54;8.80;1.00
14924;DHT22;7554;43.600;1.480;2022-12-07T03:49:27;8.80;1.00
14924;DHT22;7554;43.600;1.480;2022-12-07T03:52:02;8.80;1.00
14924;DHT22;7554;43.600;1.480;2022-12-07T03:54:36;8.80;1.00
14924;DHT22;7554;43.600;1.480;2022-12-07T03:57:06;8.80;1.00
14924;DHT22;7554;43.600;1.480;2022-12-07T03:59:35;8.80;1.00
14924;DHT22;7554;43.600;1.480;2022-12-07T04:02:05;8.80;1.00
14924;DHT22;7554;43.600;1.480;2022-12-07T04:04:34;8.80;1.00
14924;DHT22;7554;43.600;1.480;2022-12-07T04:07:02;8.80;1.00
14924;DHT22;7554;43.600;1.480;2022-12-07T04:09:29;8.70;1.00
14924;DHT22;7554;43.600;1.480;2022-12-07T04:11:57;8.70;1.00
14924;DHT22;7554;43.600;1.480;2022-12-07T04:14:24;8.80;1.00
14924;DHT22;7554;43.600;1.480;2022-12-07T04:16:52;8.70;1.00
14924;DHT22;7554;43.600;1.480;2022-12-07T04:19:26;8.70;1.00
14924;DHT22;7554;43.600;1.480;2022-12-07T04:21:54;8.70;1.00
14924;DHT22;7554;43.600;1.480;2022-12-07T04:24:22;8.80;1.00
14924;DHT22;7554;43.600;1.480;2022-12-07T04:26:49;8.70;1.00
14924;DHT22;7554;43.600;1.480;2022-12-07T04:29:17;8.70;1.00
14924;DHT22;7554;43.600;1.480;2022-12-07T04:31:45;8.70;1.00
14924;DHT22;7554;43.600;1.480;2022-12-07T04:34:13;8.70;1.00
14924;DHT22;7554;43.600;1.480;2022-12-07T04:36:42;8.80;1.00
14924;DHT22;7554;43.600;1.480;2022-12-07T04:39:18;8.70;1.00
14924;DHT22;7554;43.600;1.480;2022-12-07T04:41:45;8.70;1.00
14924;DHT22;7554;43.600;1.480;2022-12-07T04:44:13;8.70;1.00
14924;DHT22;7554;43.600;1.480;2022-12-07T04:46:41;8.70;1.00
14924;DHT22;7554;43.600;1.480;2022-12-07T04:49:09;8.70;1.00
14924;DHT22;7554;43.600;1.480;2022-12-07T04:51:37;8.70;1.00
14924;DHT22;7554;43.600;1.480;2022-12-07T04:54:05;8.80;1.00
14924;DHT22;7554;43.600;1.480;2022-12-07T04:56:33;8.70;1.00
14924;DHT22;7554;43.600;1.480;2022-12-07T04:59:02;8.80;1.00
14924;DHT22;7554;43.600;1.480;2022-12-07T05:01:30;8.80;1.00
14924;DHT22;7554;43.600;1.480;2022-12-07T05:03:58;8.80;1.00
14924;DHT22;7554;43.600;1.480;2022-12-07T05:06:26;8.80;1.00
14924;DHT22;7554;43.600;1.480;2022-12-07T05:08:53;8.80;1.00
14924;DHT22;7554;43.600;1.480;2022-12-07T05:11:22;8.80;1.00
14924;DHT22;7554;43.600;1.480;2022-12-07T05:14:07;8.80;1.00
14924;DHT22;7554;43.600;1.480;2022-12-07T05:16:35;8.80;1.00
14924;DHT22;7554;43.600;1.480;2022-12-07T05:19:02;8.80;1.00
14924;DHT22;7554;43.600;1.480;2022-12-07T05:21:30;8.80;1.00
14924;DHT22;7554;43.600;1.480;2022-12-07T05:23:57;8.80;1.00
14924;DHT22;7554;43.600;1.480;2022-12-07T05:26:26;8.80;1.00
14924;DHT22;7554;43.600;1.480;2022-12-07T05:28:55;8.80;1.00
14924;DHT22;7554;43.600;1.480;2022-12-07T05:31:23;8.80;1.00
14924;DHT22;7554;43.600;1.480;2022-12-07T05:33:51;8.80;1.00
14924;DHT22;7554;43.600;1.480;2022-12-07T05:36:19;8.80;1.00
14924;DHT22;7554;43.600;1.480;2022-12-07T05:38:47;8.80;1.00
14924;DHT22;7554;43.600;1.480;2022-12-07T05:41:16;8.80;1.00
14924;DHT22;7554;43.600;1.480;2022-12-07T05:44:02;8.80;1.00
14924;DHT22;7554;43.600;1.480;2022-12-07T05:46:29;8.80;1.00
14924;DHT22;7554;43.600;1.480;2022-12-07T05:48:57;8.80;1.00
14924;DHT22;7554;43.600;1.480;2022-12-07T05:51:24;8.80;1.00
14924;DHT22;7554;43.600;1.480;2022-12-07T05:53:52;8.80;1.00
14924;DHT22;7554;43.600;1.480;2022-12-07T05:56:19;8.80;1.00
14924;DHT22;7554;43.600;1.480;2022-12-07T05:58:47;8.80;1.00
14924;DHT22;7554;43.600;1.480;2022-12-07T06:01:33;8.80;1.00
14924;DHT22;7554;43.600;1.480;2022-12-07T06:04:00;8.80;1.00
14924;DHT22;7554;43.600;1.480;2022-12-07T06:06:28;8.80;1.00
14924;DHT22;7554;43.600;1.480;2022-12-07T06:08:55;8.80;1.00
14924;DHT22;7554;43.600;1.480;2022-12-07T06:11:22;8.80;1.00
14924;DHT22;7554;43.600;1.480;2022-12-07T06:14:07;8.80;1.00
14924;DHT22;7554;43.600;1.480;2022-12-07T06:16:36;8.80;1.00
14924;DHT22;7554;43.600;1.480;2022-12-07T06:19:03;8.80;1.00
14924;DHT22;7554;43.600;1.480;2022-12-07T06:21:31;8.80;1.00
14924;DHT22;7554;43.600;1.480;2022-12-07T06:23:58;8.80;1.00
14924;DHT22;7554;43.600;1.480;2022-12-07T06:26:25;8.70;1.00
14924;DHT22;7554;43.600;1.480;2022-12-07T06:28:53;8.80;1.00
14924;DHT22;7554;43.600;1.480;2022-12-07T06:31:20;8.80;1.00
14924;DHT22;7554;43.600;1.480;2022-12-07T06:33:49;8.80;1.00
14924;DHT22;7554;43.600;1.480;2022-12-07T06:36:17;8.80;1.00
14924;DHT22;7554;43.600;1.480;2022-12-07T06:38:44;8.70;1.00
14924;DHT22;7554;43.600;1.480;2022-12-07T06:41:11;8.70;1.00
14924;DHT22;7554;43.600;1.480;2022-12-07T06:43:39;8.70;1.00
14924;DHT22;7554;43.600;1.480;2022-12-07T06:46:07;8.70;1.00
14924;DHT22;7554;43.600;1.480;2022-12-07T06:48:35;8.70;1.00
14924;DHT22;7554;43.600;1.480;2022-12-07T06:51:04;8.70;1.00
14924;DHT22;7554;43.600;1.480;2022-12-07T06:53:32;8.70;1.00
14924;DHT22;7554;43.600;1.480;2022-12-07T06:55:59;8.70;1.00
14924;DHT22;7554;43.600;1.480;2022-12-07T06:58:27;8.70;1.00
14924;DHT22;7554;43.600;1.480;2022-12-07T07:00:54;8.70;1.00
14924;DHT22;7554;43.600;1.480;2022-12-07T07:03:22;8.70;1.00
14924;DHT22;7554;43.600;1.480;2022-12-07T07:05:49;8.80;1.00
14924;DHT22;7554;43.600;1.480;2022-12-07T07:08:18;8.70;1.00
14924;DHT22;7554;43.600;1.480;2022-12-07T07:10:45;8.80;1.00
14924;DHT22;7554;43.600;1.480;2022-12-07T07:13:13;8.70;1.00
14924;DHT22;7554;43.600;1.480;2022-12-07T07:15:40;8.70;1.00
14924;DHT22;7554;43.600;1.480;2022-12-07T07:18:07;8.70;1.00
14924;DHT22;7554;43.600;1.480;2022-12-07T07:20:35;8.80;1.00
14924;DHT22;7554;43.600;1.480;2022-12-07T07:23:02;8.80;1.00
14924;DHT22;7554;43.600;1.480;2022-12-07T07:25:31;8.90;1.00
14924;DHT22;7554;43.600;1.480;2022-12-07T07:27:59;8.80;1.00
14924;DHT22;7554;43.600;1.480;2022-12-07T07:30:27;8.80;1.00
14924;DHT22;7554;43.600;1.480;2022-12-07T07:32:56;8.90;1.00
14924;DHT22;7554;43.600;1.480;2022-12-07T07:35:24;8.80;1.00
14924;DHT22;7554;43.600;1.480;2022-12-07T07:37:52;8.80;1.00
14924;DHT22;7554;43.600;1.480;2022-12-07T07:40:19;8.90;1.00
14924;DHT22;7554;43.600;1.480;2022-12-07T07:42:49;8.80;1.00
14924;DHT22;7554;43.600;1.480;2022-12-07T07:45:18;8.90;1.00
14924;DHT22;7554;43.600;1.480;2022-12-07T07:47:45;8.90;1.00
14924;DHT22;7554;43.600;1.480;2022-12-07T07:50:13;9.00;1.00
14924;DHT22;7554;43.600;1.480;2022-12-07T07:52:41;9.00;1.00
14924;DHT22;7554;43.600;1.480;2022-12-07T07:55:09;9.00;1.00
14924;DHT22;7554;43.600;1.480;2022-12-07T07:57:37;9.10;1.00
14924;DHT22;7554;43.600;1.480;2022-12-07T08:00:09;9.10;1.00
14924;DHT22;7554;43.600;1.480;2022-12-07T08:02:37;9.10;1.00
14924;DHT22;7554;43.600;1.480;2022-12-07T08:05:07;9.10;1.00
14924;DHT22;7554;43.600;1.480;2022-12-07T08:07:34;9.20;1.00
14924;DHT22;7554;43.600;1.480;2022-12-07T08:10:02;9.30;1.00
14924;DHT22;7554;43.600;1.480;2022-12-07T08:12:30;9.30;1.00
14924;DHT22;7554;43.600;1.480;2022-12-07T08:14:58;9.40;1.00
14924;DHT22;7554;43.600;1.480;2022-12-07T08:17:27;9.40;1.00
14924;DHT22;7554;43.600;1.480;2022-12-07T08:19:54;9.50;1.00
14924;DHT22;7554;43.600;1.480;2022-12-07T08:22:22;9.60;1.00
14924;DHT22;7554;43.600;1.480;2022-12-07T08:24:49;9.70;1.00
14924;DHT22;7554;43.600;1.480;2022-12-07T08:27:17;9.80;1.00
14924;DHT22;7554;43.600;1.480;2022-12-07T08:29:44;9.90;1.00
14924;DHT22;7554;43.600;1.480;2022-12-07T08:32:12;10.00;1.00
14924;DHT22;7554;43.600;1.480;2022-12-07T08:34:41;10.00;1.00
14924;DHT22;7554;43.600;1.480;2022-12-07T08:37:08;10.10;1.00
14924;DHT22;7554;43.600;1.480;2022-12-07T08:39:35;10.10;1.00
14924;DHT22;7554;43.600;1.480;2022-12-07T08:42:03;10.10;1.00
14924;DHT22;7554;43.600;1.480;2022-12-07T08:44:30;10.10;1.00
14924;DHT22;7554;43.600;1.480;2022-12-07T08:47:00;10.20;1.00
14924;DHT22;7554;43.600;1.480;2022-12-07T08:49:32;10.20;1.00
14924;DHT22;7554;43.600;1.480;2022-12-07T08:52:04;10.30;1.00
14924;DHT22;7554;43.600;1.480;2022-12-07T08:54:34;10.40;1.00
14924;DHT22;7554;43.600;1.480;2022-12-07T08:57:02;10.50;1.00
14924;DHT22;7554;43.600;1.480;2022-12-07T08:59:30;10.70;1.00
14924;DHT22;7554;43.600;1.480;2022-12-07T09:01:57;10.80;1.00
14924;DHT22;7554;43.600;1.480;2022-12-07T09:04:25;11.00;1.00
14924;DHT22;7554;43.600;1.480;2022-12-07T09:06:54;11.10;1.00
14924;DHT22;7554;43.600;1.480;2022-12-07T09:09:22;11.10;1.00
14924;DHT22;7554;43.600;1.480;2022-12-07T09:11:50;11.20;1.00
14924;DHT22;7554;43.600;1.480;2022-12-07T09:14:17;11.40;1.00
14924;DHT22;7554;43.600;1.480;2022-12-07T09:16:45;11.20;1.00
14924;DHT22;7554;43.600;1.480;2022-12-07T09:19:12;11.30;1.00
14924;DHT22;7554;43.600;1.480;2022-12-07T09:21:39;11.30;1.00
14924;DHT22;7554;43.600;1.480;2022-12-07T09:24:07;11.30;1.00
14924;DHT22;7554;43.600;1.480;2022-12-07T09:26:36;11.20;1.00
14924;DHT22;7554;43.600;1.480;2022-12-07T09:29:05;11.00;1.00
14924;DHT22;7554;43.600;1.480;2022-12-07T09:31:32;10.90;1.00
14924;DHT22;7554;43.600;1.480;2022-12-07T09:34:00;10.70;1.00
14924;DHT22;7554;43.600;1.480;2022-12-07T09:36:28;10.70;1.00
14924;DHT22;7554;43.600;1.480;2022-12-07T09:38:56;10.70;1.00
14924;DHT22;7554;43.600;1.480;2022-12-07T09:41:24;10.70;1.00
14924;DHT22;7554;43.600;1.480;2022-12-07T09:43:59;10.60;1.00
14924;DHT22;7554;43.600;1.480;2022-12-07T09:48:59;10.70;1.00
14924;DHT22;7554;43.600;1.480;2022-12-07T09:51:26;10.70;1.00
14924;DHT22;7554;43.600;1.480;2022-12-07T09:53:55;10.60;1.00
14924;DHT22;7554;43.600;1.480;2022-12-07T09:56:24;10.60;1.00
14924;DHT22;7554;43.600;1.480;2022-12-07T09:58:58;10.70;1.00
14924;DHT22;7554;43.600;1.480;2022-12-07T10:01:29;10.80;1.00
14924;DHT22;7554;43.600;1.480;2022-12-07T10:04:05;10.70;1.00
14924;DHT22;7554;43.600;1.480;2022-12-07T10:06:34;10.70;1.00
14924;DHT22;7554;43.600;1.480;2022-12-07T10:09:01;10.70;1.00
14924;DHT22;7554;43.600;1.480;2022-12-07T10:11:29;10.80;1.00
14924;DHT22;7554;43.600;1.480;2022-12-07T10:14:11;10.80;1.00
14924;DHT22;7554;43.600;1.480;2022-12-07T10:16:40;10.70;1.00
14924;DHT22;7554;43.600;1.480;2022-12-07T10:19:20;10.70;1.00
14924;DHT22;7554;43.600;1.480;2022-12-07T10:22:03;10.80;1.00
14924;DHT22;7554;43.600;1.480;2022-12-07T10:24:30;10.70;1.00
14924;DHT22;7554;43.600;1.480;2022-12-07T10:26:59;10.80;1.00
14924;DHT22;7554;43.600;1.480;2022-12-07T10:29:31;10.80;1.00
14924;DHT22;7554;43.600;1.480;2022-12-07T10:32:02;10.80;1.00
14924;DHT22;7554;43.600;1.480;2022-12-07T10:34:33;10.80;1.00
14924;DHT22;7554;43.600;1.480;2022-12-07T10:37:15;10.80;1.00
14924;DHT22;7554;43.600;1.480;2022-12-07T10:39:44;10.80;1.00
14924;DHT22;7554;43.600;1.480;2022-12-07T10:42:17;10.80;1.00
14924;DHT22;7554;43.600;1.480;2022-12-07T10:44:47;10.90;1.00
14924;DHT22;7554;43.600;1.480;2022-12-07T10:50:19;10.90;1.00
14924;DHT22;7554;43.600;1.480;2022-12-07T10:53:16;10.90;1.00
14924;DHT22;7554;43.600;1.480;2022-12-07T10:56:01;10.90;1.00
14924;DHT22;7554;43.600;1.480;2022-12-07T10:58:45;10.90;1.00
14924;DHT22;7554;43.600;1.480;2022-12-07T11:01:22;10.90;1.00
14924;DHT22;7554;43.600;1.480;2022-12-07T11:04:10;10.90;1.00
14924;DHT22;7554;43.600;1.480;2022-12-07T11:06:45;10.90;1.00
14924;DHT22;7554;43.600;1.480;2022-12-07T11:12:12;11.00;1.00
14924;DHT22;7554;43.600;1.480;2022-12-07T11:14:46;11.00;1.00
14924;DHT22;7554;43.600;1.480;2022-12-07T11:17:20;11.00;1.00
14924;DHT22;7554;43.600;1.480;2022-12-07T11:19:59;11.10;1.00
14924;DHT22;7554;43.600;1.480;2022-12-07T11:22:36;11.10;1.00
14924;DHT22;7554;43.600;1.480;2022-12-07T11:25:18;11.00;1.00
14924;DHT22;7554;43.600;1.480;2022-12-07T11:27:55;11.10;1.00
14924;DHT22;7554;43.600;1.480;2022-12-07T11:30:34;11.10;1.00
14924;DHT22;7554;43.600;1.480;2022-12-07T11:33:15;11.10;1.00
14924;DHT22;7554;43.600;1.480;2022-12-07T11:35:55;11.10;1.00
14924;DHT22;7554;43.600;1.480;2022-12-07T11:38:32;11.20;1.00
14924;DHT22;7554;43.600;1.480;2022-12-07T11:41:04;11.20;1.00
14924;DHT22;7554;43.600;1.480;2022-12-07T11:43:53;11.20;1.00
14924;DHT22;7554;43.600;1.480;2022-12-07T11:46:26;11.20;1.00
14924;DHT22;7554;43.600;1.480;2022-12-07T11:49:02;11.20;1.00
14924;DHT22;7554;43.600;1.480;2022-12-07T11:51:34;11.20;1.00
14924;DHT22;7554;43.600;1.480;2022-12-07T11:54:11;11.20;1.00
14924;DHT22;7554;43.600;1.480;2022-12-07T11:56:40;11.20;1.00
14924;DHT22;7554;43.600;1.480;2022-12-07T11:59:11;11.20;1.00
14924;DHT22;7554;43.600;1.480;2022-12-07T12:01:47;11.20;1.00
14924;DHT22;7554;43.600;1.480;2022-12-07T12:04:29;11.30;1.00
14924;DHT22;7554;43.600;1.480;2022-12-07T12:06:58;11.30;1.00
14924;DHT22;7554;43.600;1.480;2022-12-07T12:09:31;11.30;1.00
14924;DHT22;7554;43.600;1.480;2022-12-07T12:12:29;11.30;1.00
14924;DHT22;7554;43.600;1.480;2022-12-07T12:15:09;11.30;1.00
14924;DHT22;7554;43.600;1.480;2022-12-07T12:18:02;11.30;1.00
14924;DHT22;7554;43.600;1.480;2022-12-07T12:20:39;11.30;1.00
14924;DHT22;7554;43.600;1.480;2022-12-07T12:23:11;11.40;1.00
14924;DHT22;7554;43.600;1.480;2022-12-07T12:25:42;11.50;1.00
14924;DHT22;7554;43.600;1.480;2022-12-07T12:28:23;11.50;1.00
14924;DHT22;7554;43.600;1.480;2022-12-07T12:31:07;11.50;1.00
14924;DHT22;7554;43.600;1.480;2022-12-07T12:33:37;11.40;1.00
14924;DHT22;7554;43.600;1.480;2022-12-07T12:36:24;11.40;1.00
14924;DHT22;7554;43.600;1.480;2022-12-07T12:39:08;11.50;1.00
14924;DHT22;7554;43.600;1.480;2022-12-07T12:41:58;11.40;1.00
14924;DHT22;7554;43.600;1.480;2022-12-07T12:47:54;11.70;1.00
14924;DHT22;7554;43.600;1.480;2022-12-07T12:50:23;11.60;1.00
14924;DHT22;7554;43.600;1.480;2022-12-07T12:53:00;11.50;1.00
14924;DHT22;7554;43.600;1.480;2022-12-07T12:58:41;11.60;1.00
14924;DHT22;7554;43.600;1.480;2022-12-07T13:01:33;11.60;1.00
14924;DHT22;7554;43.600;1.480;2022-12-07T13:07:00;11.50;1.00
14924;DHT22;7554;43.600;1.480;2022-12-07T13:09:30;11.50;1.00
14924;DHT22;7554;43.600;1.480;2022-12-07T13:12:02;11.60;1.00
14924;DHT22;7554;43.600;1.480;2022-12-07T13:14:40;11.60;1.00
14924;DHT22;7554;43.600;1.480;2022-12-07T13:17:09;11.60;1.00
14924;DHT22;7554;43.600;1.480;2022-12-07T13:19:58;11.60;1.00
14924;DHT22;7554;43.600;1.480;2022-12-07T13:25:29;11.50;1.00
14924;DHT22;7554;43.600;1.480;2022-12-07T13:28:01;11.50;1.00
14924;DHT22;7554;43.600;1.480;2022-12-07T13:30:29;11.50;1.00
14924;DHT22;7554;43.600;1.480;2022-12-07T13:32:58;11.50;1.00
14924;DHT22;7554;43.600;1.480;2022-12-07T13:35:32;11.40;1.00
14924;DHT22;7554;43.600;1.480;2022-12-07T13:38:02;11.40;1.00
14924;DHT22;7554;43.600;1.480;2022-12-07T13:40:32;11.40;1.00
14924;DHT22;7554;43.600;1.480;2022-12-07T13:43:01;11.50;1.00
14924;DHT22;7554;43.600;1.480;2022-12-07T13:45:30;11.50;1.00
14924;DHT22;7554;43.600;1.480;2022-12-07T13:48:21;11.50;1.00
14924;DHT22;7554;43.600;1.480;2022-12-07T13:50:56;11.50;1.00
14924;DHT22;7554;43.600;1.480;2022-12-07T13:53:24;11.50;1.00
14924;DHT22;7554;43.600;1.480;2022-12-07T13:55:58;11.60;1.00
14924;DHT22;7554;43.600;1.480;2022-12-07T13:58:27;11.70;1.00
14924;DHT22;7554;43.600;1.480;2022-12-07T14:00:58;11.80;1.00
14924;DHT22;7554;43.600;1.480;2022-12-07T14:03:31;11.70;1.00
14924;DHT22;7554;43.600;1.480;2022-12-07T14:06:24;11.70;1.00
14924;DHT22;7554;43.600;1.480;2022-12-07T14:09:08;11.60;1.00
14924;DHT22;7554;43.600;1.480;2022-12-07T14:11:37;11.50;1.00
14924;DHT22;7554;43.600;1.480;2022-12-07T14:14:05;11.50;1.00
14924;DHT22;7554;43.600;1.480;2022-12-07T14:16:34;11.50;1.00
14924;DHT22;7554;43.600;1.480;2022-12-07T14:19:03;11.40;1.00
14924;DHT22;7554;43.600;1.480;2022-12-07T14:21:32;11.40;1.00
14924;DHT22;7554;43.600;1.480;2022-12-07T14:24:18;11.40;1.00
14924;DHT22;7554;43.600;1.480;2022-12-07T14:26:49;11.40;1.00
14924;DHT22;7554;43.600;1.480;2022-12-07T14:29:22;11.40;1.00
14924;DHT22;7554;43.600;1.480;2022-12-07T14:31:50;11.30;1.00
14924;DHT22;7554;43.600;1.480;2022-12-07T14:34:19;11.40;1.00
14924;DHT22;7554;43.600;1.480;2022-12-07T14:36:47;11.40;1.00
14924;DHT22;7554;43.600;1.480;2022-12-07T14:39:14;11.40;1.00
14924;DHT22;7554;43.600;1.480;2022-12-07T14:41:42;11.30;1.00
14924;DHT22;7554;43.600;1.480;2022-12-07T14:44:21;11.30;1.00
14924;DHT22;7554;43.600;1.480;2022-12-07T14:46:49;11.40;1.00
14924;DHT22;7554;43.600;1.480;2022-12-07T14:49:18;11.30;1.00
14924;DHT22;7554;43.600;1.480;2022-12-07T14:51:46;11.40;1.00
14924;DHT22;7554;43.600;1.480;2022-12-07T14:54:16;11.40;1.00
14924;DHT22;7554;43.600;1.480;2022-12-07T14:56:45;11.50;1.00
14924;DHT22;7554;43.600;1.480;2022-12-07T14:59:15;11.50;1.00
14924;DHT22;7554;43.600;1.480;2022-12-07T15:01:44;11.40;1.00
14924;DHT22;7554;43.600;1.480;2022-12-07T15:04:11;11.40;1.00
14924;DHT22;7554;43.600;1.480;2022-12-07T15:06:39;11.40;1.00
14924;DHT22;7554;43.600;1.480;2022-12-07T15:09:10;11.40;1.00
14924;DHT22;7554;43.600;1.480;2022-12-07T15:11:38;11.40;1.00
14924;DHT22;7554;43.600;1.480;2022-12-07T15:14:05;11.30;1.00
14924;DHT22;7554;43.600;1.480;2022-12-07T15:16:38;11.30;1.00
14924;DHT22;7554;43.600;1.480;2022-12-07T15:19:12;11.30;1.00
14924;DHT22;7554;43.600;1.480;2022-12-07T15:21:41;11.30;1.00
14924;DHT22;7554;43.600;1.480;2022-12-07T15:24:10;11.30;1.00
14924;DHT22;7554;43.600;1.480;2022-12-07T15:26:39;11.20;1.00
14924;DHT22;7554;43.600;1.480;2022-12-07T15:29:08;11.20;1.00
14924;DHT22;7554;43.600;1.480;2022-12-07T15:31:35;11.10;1.00
14924;DHT22;7554;43.600;1.480;2022-12-07T15:34:03;11.10;1.00
14924;DHT22;7554;43.600;1.480;2022-12-07T15:36:33;11.10;1.00
14924;DHT22;7554;43.600;1.480;2022-12-07T15:39:01;11.10;1.00
14924;DHT22;7554;43.600;1.480;2022-12-07T15:41:29;11.00;1.00
14924;DHT22;7554;43.600;1.480;2022-12-07T15:43:56;11.00;1.00
14924;DHT22;7554;43.600;1.480;2022-12-07T15:46:41;10.90;1.00
14924;DHT22;7554;43.600;1.480;2022-12-07T15:49:12;10.90;1.00
14924;DHT22;7554;43.600;1.480;2022-12-07T15:51:41;10.80;1.00
14924;DHT22;7554;43.600;1.480;2022-12-07T15:54:13;10.80;1.00
14924;DHT22;7554;43.600;1.480;2022-12-07T15:56:40;10.70;1.00
14924;DHT22;7554;43.600;1.480;2022-12-07T15:59:08;10.70;1.00
14924;DHT22;7554;43.600;1.480;2022-12-07T16:01:35;10.60;1.00
14924;DHT22;7554;43.600;1.480;2022-12-07T16:04:02;10.60;1.00
14924;DHT22;7554;43.600;1.480;2022-12-07T16:06:31;10.60;1.00
14924;DHT22;7554;43.600;1.480;2022-12-07T16:09:00;10.50;1.00
14924;DHT22;7554;43.600;1.480;2022-12-07T16:11:27;10.50;1.00
14924;DHT22;7554;43.600;1.480;2022-12-07T16:13:55;10.50;1.00
14924;DHT22;7554;43.600;1.480;2022-12-07T16:16:22;10.40;1.00
14924;DHT22;7554;43.600;1.480;2022-12-07T16:18:50;10.40;1.00
14924;DHT22;7554;43.600;1.480;2022-12-07T16:21:18;10.30;1.00
14924;DHT22;7554;43.600;1.480;2022-12-07T16:23:46;10.20;1.00
14924;DHT22;7554;43.600;1.480;2022-12-07T16:26:17;10.20;1.00
14924;DHT22;7554;43.600;1.480;2022-12-07T16:28:45;10.20;1.00
14924;DHT22;7554;43.600;1.480;2022-12-07T16:31:14;10.10;1.00
14924;DHT22;7554;43.600;1.480;2022-12-07T16:33:42;10.10;1.00
14924;DHT22;7554;43.600;1.480;2022-12-07T16:36:14;10.10;1.00
14924;DHT22;7554;43.600;1.480;2022-12-07T16:38:42;10.00;1.00
14924;DHT22;7554;43.600;1.480;2022-12-07T16:41:11;10.00;1.00
14924;DHT22;7554;43.600;1.480;2022-12-07T16:43:40;9.90;1.00
14924;DHT22;7554;43.600;1.480;2022-12-07T16:46:08;10.00;1.00
14924;DHT22;7554;43.600;1.480;2022-12-07T16:48:36;10.00;1.00
14924;DHT22;7554;43.600;1.480;2022-12-07T16:51:05;9.90;1.00
14924;DHT22;7554;43.600;1.480;2022-12-07T16:53:34;9.90;1.00
14924;DHT22;7554;43.600;1.480;2022-12-07T16:56:03;9.90;1.00
14924;DHT22;7554;43.600;1.480;2022-12-07T16:58:31;9.80;1.00